Terminal Aerodrome Forecast
Issued by NWS

Home | Current Version | Previous Version | Text Only | Print | Product List | Glossary On
Versions: 1 2 3 4 5 6 7 8 9 10 11 12 13 14 15 16 17 18
767
FTUS44 KLZK 051140
TAFBPK
TAF
KBPK 051140Z 0512/0612 00000KT 1/2SM FZFG VV001
      TEMPO 0514/0516 2SM BR OVC005
     FM051600 13005KT P6SM SCT005 BKN250
     FM051900 13008KT P6SM VCSH SCT040 OVC250
     FM060100 VRB05KT 5SM -RA BR OVC025
     FM060600 VRB03KT 1/2SM -DZ FG OVC005=

USA.gov is the U.S. government's official web portal to all federal, state and local government web resources and services.